Spencer, North Dakota
Current Conditions -  °F | °C
As of 10:35 AM on Friday 24 Oct 2014 (Local Time) from K08D Reporting Station
Scattered Clouds Scattered Clouds  
Wind Chill: 55°   Ceiling: Unl
Heat Index: 55°   Visibility: 10mi
Dew Point: 37°   Wind: 12mph
Humidity: 51%   Direction: 280°W
Pressure: 29.87"   Gusts: 24mph
Location:  48.6651°N, 102.033°W
Report Text: K08D 241535Z AUTO 28010G21KT 10SM SCT120 13/03 A2987 RMK AO2
Loading
Personal Weather Stations






























Interactive Weather Map
Tropical Storm Tracking
New forecast layout! Learn more

10-Day Weather Forecast

Advertisements
Track Severe Weather on mobile